Maribel — LAGU6 — position and weather

sailwx.info

Track history (hours):
 
Tides and Currents Weather Stations Pressure Air Temp Water Temp Dewpoint Dewpoint Depression Visibility Wind Speed Wind Dir Waves Ship Positions

Maribel

Last reported at 2016-May-01 18:28 UTC. Time now 2016-May-05 10:25 UTC.
Position N 07°20' W 015°25'.

Length 228 m; draft 12.9 m.

Type: Ship. MMSI: 257872000.

Date/timePositionNaut miles runAvg speedWind from/ knotsBaromVisibWave heightAir tempDewpointWater temp
2016-May-01 18:28N 07°20' W 015°25'1213.5
2016-May-01 17:33N 07°30' W 015°32'1413.3
2016-May-01 16:32N 07°41' W 015°40'1313.4
2016-May-01 15:33N 07°52' W 015°47'2813.4
2016-May-01 13:30N 08°15' W 016°03'1413.4
2016-May-01 12:26N 08°27' W 016°11'2513.4
2016-May-01 10:33N 08°48' W 016°25'13613.5
2016-May-01 00:26N 10°41' W 017°43'1213.5
2016-Apr-30 23:33N 10°50' W 017°50'1313.2
2016-Apr-30 22:33N 11°01' W 017°57'1313.1
2016-Apr-30 21:33N 11°12' W 018°05'7213.2
2016-Apr-30 16:04N 12°23' W 018°21'3413.6
2016-Apr-30 13:33N 12°57' W 018°20'5813.4
2016-Apr-30 09:13N 13°55' W 018°20'913.5
2016-Apr-30 08:33N 14°04' W 018°20'1413.7
2016-Apr-30 07:33N 14°18' W 018°20'1313.6
2016-Apr-30 06:34N 14°32' W 018°20'1313.4
2016-Apr-30 05:33N 14°45' W 018°20'1513.3
2016-Apr-30 04:24N 15°00' W 018°20'1113.2
2016-Apr-30 03:34N 15°12' W 018°20'4313.4
2016-Apr-30 00:20N 15°55' W 018°20'  
2016-Apr-27 14:08N 28°18' W 014°56'813.2
2016-Apr-27 13:33N 28°25' W 014°54'1313.5
2016-Apr-27 12:33N 28°39' W 014°50'1513.3
2016-Apr-27 11:25N 28°53' W 014°46'1313.3
2016-Apr-27 10:29N 29°05' W 014°43'1213.5
2016-Apr-27 09:33N 29°18' W 014°40'1413.7
2016-Apr-27 08:31N 29°31' W 014°36'1313.5
2016-Apr-27 07:33N 29°44' W 014°32'1413.5
2016-Apr-27 06:33N 29°57' W 014°29'27013.4
2016-Apr-26 10:23N 34°20' W 013°14'8514.5
2016-Apr-26 04:29N 35°43' W 012°50'1314.3
2016-Apr-26 03:33N 35°56' W 012°46'1714.1
2016-Apr-26 02:19N 36°13' W 012°41'1114.0
2016-Apr-26 01:33N 36°24' W 012°38'1414.1
2016-Apr-26 00:33N 36°37' W 012°34'1614.3
2016-Apr-25 23:25N 36°53' W 012°29'1314.4
2016-Apr-25 22:33N 37°05' W 012°25'1414.2
2016-Apr-25 21:33N 37°19' W 012°22'1414.5
2016-Apr-25 20:33N 37°33' W 012°17'1514.5
2016-Apr-25 19:32N 37°48' W 012°13'1414.4
2016-Apr-25 18:33N 38°01' W 012°09'1414.2
2016-Apr-25 17:32N 38°15' W 012°05'1514.3
2016-Apr-25 16:29N 38°30' W 012°00'1414.8
2016-Apr-25 15:32N 38°44' W 011°56'  
2016-Apr-23 03:08N 49°50' W 003°23'814.3
2016-Apr-23 02:33N 49°54' W 003°12'1515.0
2016-Apr-23 01:33N 50°00' W 002°50'9712.0
2016-Apr-22 17:27N 50°26' W 000°24'1214.1
2016-Apr-22 16:34N 50°29' W 000°05'1514.5
2016-Apr-22 15:32N 50°33' E 000°17'1414.1
2016-Apr-22 14:31N 50°38' E 000°38'2911.7
2016-Apr-22 12:04N 50°57' E 001°13'5 9.8
2016-Apr-22 11:33N 51°00' E 001°19'1110.7
2016-Apr-22 10:33N 51°07' E 001°32'1212.5
2016-Apr-22 09:33N 51°15' E 001°47'1313.1
2016-Apr-22 08:33N 51°24' E 002°02'1211.8
2016-Apr-22 07:33N 51°21' E 002°20'1313.5
2016-Apr-22 06:33N 51°23' E 002°41'1211.8
2016-Apr-22 05:34N 51°25' E 002°60'1413.7
2016-Apr-22 04:34N 51°25' E 003°22'1212.4
2016-Apr-22 03:33N 51°26' E 003°41'10 9.5
2016-Apr-22 02:33N 51°22' E 003°55'5 5.2
2016-Apr-22 01:33N 51°22' E 004°04'7 7.1
2016-Apr-22 00:33N 51°21' E 004°15'  
Track history (hours):
 
Tides and Currents Weather Stations Pressure Air Temp Water Temp Dewpoint Dewpoint Depression Visibility Wind Speed Wind Dir Waves Ship Positions

Maribel

Last reported at 2016-May-01 18:28 UTC. Time now 2016-May-05 10:25 UTC.
Position N 07°20' W 015°25'.

Length 228 m; draft 12.9 m.

Type: Ship. MMSI: 257872000.

Date/timePositionNaut miles runAvg speedWind from/ knotsBaromVisibWave heightAir tempDewpointWater temp
2016-May-01 18:28N 07°20' W 015°25'1213.5
2016-May-01 17:33N 07°30' W 015°32'1413.3
2016-May-01 16:32N 07°41' W 015°40'1313.4
2016-May-01 15:33N 07°52' W 015°47'2813.4
2016-May-01 13:30N 08°15' W 016°03'1413.4
2016-May-01 12:26N 08°27' W 016°11'2513.4
2016-May-01 10:33N 08°48' W 016°25'13613.5
2016-May-01 00:26N 10°41' W 017°43'1213.5
2016-Apr-30 23:33N 10°50' W 017°50'1313.2
2016-Apr-30 22:33N 11°01' W 017°57'1313.1
2016-Apr-30 21:33N 11°12' W 018°05'7213.2
2016-Apr-30 16:04N 12°23' W 018°21'3413.6
2016-Apr-30 13:33N 12°57' W 018°20'5813.4
2016-Apr-30 09:13N 13°55' W 018°20'913.5
2016-Apr-30 08:33N 14°04' W 018°20'1413.7
2016-Apr-30 07:33N 14°18' W 018°20'1313.6
2016-Apr-30 06:34N 14°32' W 018°20'1313.4
2016-Apr-30 05:33N 14°45' W 018°20'1513.3
2016-Apr-30 04:24N 15°00' W 018°20'1113.2
2016-Apr-30 03:34N 15°12' W 018°20'4313.4
2016-Apr-30 00:20N 15°55' W 018°20'  
2016-Apr-27 14:08N 28°18' W 014°56'813.2
2016-Apr-27 13:33N 28°25' W 014°54'1313.5
2016-Apr-27 12:33N 28°39' W 014°50'1513.3
2016-Apr-27 11:25N 28°53' W 014°46'1313.3
2016-Apr-27 10:29N 29°05' W 014°43'1213.5
2016-Apr-27 09:33N 29°18' W 014°40'1413.7
2016-Apr-27 08:31N 29°31' W 014°36'1313.5
2016-Apr-27 07:33N 29°44' W 014°32'1413.5
2016-Apr-27 06:33N 29°57' W 014°29'27013.4
2016-Apr-26 10:23N 34°20' W 013°14'8514.5
2016-Apr-26 04:29N 35°43' W 012°50'1314.3
2016-Apr-26 03:33N 35°56' W 012°46'1714.1
2016-Apr-26 02:19N 36°13' W 012°41'1114.0
2016-Apr-26 01:33N 36°24' W 012°38'1414.1
2016-Apr-26 00:33N 36°37' W 012°34'1614.3
2016-Apr-25 23:25N 36°53' W 012°29'1314.4
2016-Apr-25 22:33N 37°05' W 012°25'1414.2
2016-Apr-25 21:33N 37°19' W 012°22'1414.5
2016-Apr-25 20:33N 37°33' W 012°17'1514.5
2016-Apr-25 19:32N 37°48' W 012°13'1414.4
2016-Apr-25 18:33N 38°01' W 012°09'1414.2
2016-Apr-25 17:32N 38°15' W 012°05'1514.3
2016-Apr-25 16:29N 38°30' W 012°00'1414.8
2016-Apr-25 15:32N 38°44' W 011°56'  
2016-Apr-23 03:08N 49°50' W 003°23'814.3
2016-Apr-23 02:33N 49°54' W 003°12'1515.0
2016-Apr-23 01:33N 50°00' W 002°50'9712.0
2016-Apr-22 17:27N 50°26' W 000°24'1214.1
2016-Apr-22 16:34N 50°29' W 000°05'1514.5
2016-Apr-22 15:32N 50°33' E 000°17'1414.1
2016-Apr-22 14:31N 50°38' E 000°38'2911.7
2016-Apr-22 12:04N 50°57' E 001°13'5 9.8
2016-Apr-22 11:33N 51°00' E 001°19'1110.7
2016-Apr-22 10:33N 51°07' E 001°32'1212.5
2016-Apr-22 09:33N 51°15' E 001°47'1313.1
2016-Apr-22 08:33N 51°24' E 002°02'1211.8
2016-Apr-22 07:33N 51°21' E 002°20'1313.5
2016-Apr-22 06:33N 51°23' E 002°41'1211.8
2016-Apr-22 05:34N 51°25' E 002°60'1413.7
2016-Apr-22 04:34N 51°25' E 003°22'1212.4
2016-Apr-22 03:33N 51°26' E 003°41'10 9.5
2016-Apr-22 02:33N 51°22' E 003°55'5 5.2
2016-Apr-22 01:33N 51°22' E 004°04'7 7.1
2016-Apr-22 00:33N 51°21' E 004°15'  

Dump ship's entire track history